createdAt,value
2023-05-10T00:00:14.175Z,100.00
2023-05-10T00:02:41.662Z,100.00
2023-05-10T00:05:08.692Z,100.00
2023-05-10T00:07:35.225Z,100.00
2023-05-10T00:10:01.743Z,100.00
2023-05-10T00:12:28.262Z,100.00
2023-05-10T00:14:54.795Z,100.00
2023-05-10T00:17:21.450Z,100.00
2023-05-10T00:19:47.996Z,100.00
2023-05-10T00:22:14.495Z,100.00
2023-05-10T00:24:41.026Z,100.00
2023-05-10T00:27:07.505Z,100.00
2023-05-10T00:29:34.854Z,100.00
2023-05-10T00:32:01.507Z,100.00
2023-05-10T00:34:28.210Z,100.00
2023-05-10T00:36:54.857Z,100.00
2023-05-10T00:39:21.481Z,100.00
2023-05-10T00:41:48.087Z,100.00
2023-05-10T00:44:14.717Z,100.00
2023-05-10T00:46:41.583Z,100.00
2023-05-10T00:49:08.262Z,100.00
2023-05-10T00:51:34.937Z,100.00
2023-05-10T00:54:01.470Z,100.00
2023-05-10T00:56:29.466Z,100.00
2023-05-10T00:58:56.758Z,100.00
2023-05-10T01:01:23.419Z,100.00
2023-05-10T01:03:50.007Z,100.00
2023-05-10T01:06:16.538Z,100.00
2023-05-10T01:08:43.215Z,100.00
2023-05-10T01:11:09.927Z,100.00
2023-05-10T01:13:38.447Z,100.00
2023-05-10T01:16:05.876Z,100.00
2023-05-10T01:18:34.477Z,100.00
2023-05-10T01:21:14.546Z,100.00
2023-05-10T01:24:10.660Z,100.00
2023-05-10T01:27:11.428Z,100.00
2023-05-10T01:30:14.147Z,100.00
2023-05-10T01:32:52.139Z,100.00
2023-05-10T01:36:04.967Z,100.00
2023-05-10T01:38:57.688Z,100.00
2023-05-10T01:41:56.322Z,100.00
2023-05-10T01:44:30.977Z,100.00
2023-05-10T01:47:21.039Z,100.00
2023-05-10T01:49:52.333Z,100.00
2023-05-10T01:52:27.335Z,100.00
2023-05-10T01:55:02.153Z,100.00
2023-05-10T01:57:29.025Z,100.00
2023-05-10T01:59:56.023Z,100.00
2023-05-10T02:02:23.901Z,100.00
2023-05-10T02:04:51.678Z,100.00
2023-05-10T02:07:18.744Z,100.00
2023-05-10T02:09:48.993Z,100.00
2023-05-10T02:12:16.619Z,100.00
2023-05-10T02:14:44.095Z,100.00
2023-05-10T02:17:10.982Z,100.00
2023-05-10T02:19:39.580Z,100.00
2023-05-10T02:22:06.298Z,100.00
2023-05-10T02:24:33.742Z,100.00
2023-05-10T02:27:00.901Z,100.00
2023-05-10T02:29:28.282Z,100.00
2023-05-10T02:31:56.205Z,100.00
2023-05-10T02:34:24.324Z,100.00
2023-05-10T02:36:52.262Z,100.00
2023-05-10T02:39:20.130Z,100.00
2023-05-10T02:41:47.904Z,100.00
2023-05-10T02:44:16.640Z,100.00
2023-05-10T02:46:43.144Z,100.00
2023-05-10T02:49:09.688Z,100.00
2023-05-10T02:51:38.758Z,100.00
2023-05-10T02:54:11.674Z,100.00
2023-05-10T02:56:44.042Z,100.00
2023-05-10T02:59:10.555Z,100.00
2023-05-10T03:01:37.085Z,100.00
2023-05-10T03:04:03.741Z,100.00
2023-05-10T03:06:30.378Z,100.00
2023-05-10T03:08:57.475Z,100.00
2023-05-10T03:11:46.383Z,100.00
2023-05-10T03:14:27.994Z,100.00
2023-05-10T03:16:59.972Z,100.00
2023-05-10T03:19:34.189Z,100.00
2023-05-10T03:22:05.952Z,100.00
2023-05-10T03:24:34.167Z,100.00
2023-05-10T03:27:03.773Z,100.00
2023-05-10T03:29:31.773Z,100.00
2023-05-10T03:32:01.562Z,100.00
2023-05-10T03:34:30.981Z,100.00
2023-05-10T03:36:57.471Z,100.00
2023-05-10T03:39:23.988Z,100.00
2023-05-10T03:41:50.457Z,100.00
2023-05-10T03:44:17.397Z,100.00
2023-05-10T03:46:44.016Z,100.00
2023-05-10T03:49:10.571Z,100.00
2023-05-10T03:51:37.261Z,100.00
2023-05-10T03:54:03.930Z,100.00
2023-05-10T03:56:31.048Z,100.00
2023-05-10T03:58:57.566Z,100.00
2023-05-10T04:01:24.062Z,100.00
2023-05-10T04:03:50.807Z,100.00
2023-05-10T04:06:17.576Z,100.00
2023-05-10T04:08:44.111Z,100.00
2023-05-10T04:11:13.229Z,100.00
2023-05-10T04:13:39.744Z,100.00
2023-05-10T04:16:06.539Z,100.00
2023-05-10T04:18:33.113Z,100.00
2023-05-10T04:20:59.630Z,100.00
2023-05-10T04:23:26.160Z,100.00
2023-05-10T04:25:52.736Z,100.00
2023-05-10T04:28:19.317Z,100.00
2023-05-10T04:30:46.696Z,100.00
2023-05-10T04:33:13.251Z,100.00
2023-05-10T04:35:41.030Z,100.00
2023-05-10T04:38:07.821Z,100.00
2023-05-10T04:40:35.220Z,100.00
2023-05-10T04:43:01.755Z,100.00
2023-05-10T04:45:28.256Z,100.00
2023-05-10T04:47:54.854Z,100.00
2023-05-10T04:50:21.403Z,100.00
2023-05-10T04:52:47.916Z,100.00
2023-05-10T04:55:14.702Z,100.00
2023-05-10T04:57:41.281Z,100.00
2023-05-10T05:00:08.446Z,100.00
2023-05-10T05:02:35.161Z,100.00
2023-05-10T05:05:01.892Z,100.00
2023-05-10T05:07:28.447Z,100.00
2023-05-10T05:09:54.973Z,100.00
2023-05-10T05:12:21.508Z,100.00
2023-05-10T05:14:48.004Z,100.00
2023-05-10T05:17:14.541Z,100.00
2023-05-10T05:19:41.073Z,100.00
2023-05-10T05:22:08.812Z,100.00
2023-05-10T05:24:39.148Z,100.00
2023-05-10T05:27:06.889Z,100.00
2023-05-10T05:29:33.426Z,100.00
2023-05-10T05:32:00.278Z,100.00
2023-05-10T05:34:26.993Z,100.00
2023-05-10T05:36:53.514Z,100.00
2023-05-10T05:39:20.021Z,100.00
2023-05-10T05:41:47.623Z,100.00
2023-05-10T05:44:14.132Z,100.00
2023-05-10T05:46:40.731Z,100.00
2023-05-10T05:49:07.492Z,100.00
2023-05-10T05:51:34.034Z,100.00
2023-05-10T05:54:00.585Z,100.00
2023-05-10T05:56:27.152Z,100.00
2023-05-10T05:58:53.890Z,100.00
2023-05-10T06:01:20.583Z,100.00
2023-05-10T06:03:47.171Z,100.00
2023-05-10T06:06:14.373Z,100.00
2023-05-10T06:08:40.896Z,100.00
2023-05-10T06:11:07.382Z,100.00
2023-05-10T06:13:36.159Z,100.00
2023-05-10T06:16:03.846Z,100.00
2023-05-10T06:18:30.392Z,100.00
2023-05-10T06:20:57.023Z,100.00
2023-05-10T06:23:23.821Z,100.00
2023-05-10T06:25:50.586Z,100.00
2023-05-10T06:28:17.178Z,100.00
2023-05-10T06:30:43.727Z,100.00
2023-05-10T06:33:10.353Z,100.00
2023-05-10T06:35:37.830Z,100.00
2023-05-10T06:38:04.401Z,100.00
2023-05-10T06:40:30.945Z,99.50
2023-05-10T06:42:57.484Z,98.73
2023-05-10T06:45:24.141Z,97.88
2023-05-10T06:47:50.704Z,96.51
2023-05-10T06:50:17.294Z,96.02
2023-05-10T06:52:44.183Z,95.89
2023-05-10T06:55:10.990Z,95.82
2023-05-10T06:57:37.632Z,96.08
2023-05-10T07:00:05.738Z,95.96
2023-05-10T07:02:32.375Z,95.73
2023-05-10T07:05:01.679Z,95.71
2023-05-10T07:07:29.855Z,96.31
2023-05-10T07:09:57.534Z,95.38
2023-05-10T07:12:24.801Z,94.51
2023-05-10T07:14:51.360Z,93.54
2023-05-10T07:17:17.924Z,92.52
2023-05-10T07:19:44.695Z,91.83
2023-05-10T07:22:11.266Z,92.08
2023-05-10T07:24:37.813Z,90.21
2023-05-10T07:27:05.216Z,88.42
2023-05-10T07:29:31.746Z,89.38
2023-05-10T07:31:59.039Z,88.40
2023-05-10T07:34:26.263Z,89.57
2023-05-10T07:36:53.194Z,90.10
2023-05-10T07:39:27.278Z,88.68
2023-05-10T07:41:55.501Z,89.43
2023-05-10T07:44:22.049Z,89.96
2023-05-10T07:46:49.096Z,89.34
2023-05-10T07:49:15.777Z,90.18
2023-05-10T07:51:43.323Z,90.15
2023-05-10T07:54:09.903Z,90.40
2023-05-10T07:56:36.448Z,90.49
2023-05-10T07:59:08.443Z,90.22
2023-05-10T08:01:36.243Z,90.42
2023-05-10T08:04:03.259Z,88.78
2023-05-10T08:06:30.880Z,89.42
2023-05-10T08:08:57.636Z,88.87
2023-05-10T08:11:24.325Z,88.60
2023-05-10T08:13:51.834Z,88.33
2023-05-10T08:16:18.466Z,88.33
2023-05-10T08:18:46.431Z,87.87
2023-05-10T08:21:13.433Z,87.77
2023-05-10T08:23:39.918Z,87.16
2023-05-10T08:26:06.699Z,86.57
2023-05-10T08:28:33.295Z,87.28
2023-05-10T08:31:00.053Z,86.41
2023-05-10T08:33:26.934Z,86.56
2023-05-10T08:35:53.481Z,85.72
2023-05-10T08:38:19.975Z,86.65
2023-05-10T08:40:46.715Z,86.71
2023-05-10T08:43:16.172Z,87.05
2023-05-10T08:45:46.292Z,87.01
2023-05-10T08:48:12.906Z,87.04
2023-05-10T08:50:42.990Z,87.16
2023-05-10T08:53:14.128Z,86.93
2023-05-10T08:55:43.041Z,87.05
2023-05-10T08:58:10.371Z,86.00
2023-05-10T09:00:38.222Z,85.68
2023-05-10T09:03:05.861Z,86.33
2023-05-10T09:05:32.888Z,86.27
2023-05-10T09:08:02.305Z,86.37
2023-05-10T09:10:29.207Z,87.60
2023-05-10T09:12:59.382Z,87.91
2023-05-10T09:15:26.237Z,88.59
2023-05-10T09:17:52.859Z,88.28
2023-05-10T09:20:21.372Z,88.64
2023-05-10T09:22:48.354Z,88.19
2023-05-10T09:25:16.613Z,88.45
2023-05-10T09:27:48.183Z,89.53
2023-05-10T09:30:19.102Z,89.47
2023-05-10T09:37:25.432Z,91.11
2023-05-10T09:39:55.584Z,90.72
2023-05-10T09:42:22.125Z,90.97
2023-05-10T09:44:48.955Z,91.33
2023-05-10T09:47:19.970Z,90.69
2023-05-10T09:49:54.070Z,91.24
2023-05-10T09:52:20.833Z,90.43
2023-05-10T09:54:54.298Z,90.91
2023-05-10T09:57:25.943Z,91.00
2023-05-10T09:59:54.530Z,91.22
2023-05-10T10:02:21.035Z,91.24
2023-05-10T10:04:50.280Z,90.94
2023-05-10T10:07:23.702Z,90.54
2023-05-10T10:09:50.789Z,90.33
2023-05-10T10:12:17.542Z,90.41
2023-05-10T10:14:44.275Z,90.28
2023-05-10T10:17:10.769Z,88.95
2023-05-10T10:19:38.043Z,88.57
2023-05-10T10:22:05.294Z,87.33
2023-05-10T10:24:32.170Z,87.67
2023-05-10T10:27:23.722Z,87.12
2023-05-10T10:29:53.331Z,86.53
2023-05-10T10:32:31.392Z,86.29
2023-05-10T10:34:58.043Z,86.22
2023-05-10T10:37:25.142Z,84.63
2023-05-10T10:39:51.780Z,82.59
2023-05-10T10:42:44.886Z,80.07
2023-05-10T10:45:14.704Z,78.30
2023-05-10T10:47:41.562Z,74.71
2023-05-10T10:50:09.161Z,73.33
2023-05-10T10:52:37.375Z,72.59
2023-05-10T10:55:14.188Z,67.86
2023-05-10T10:58:02.080Z,67.52
2023-05-10T11:00:29.172Z,66.22
2023-05-10T11:03:10.146Z,65.60
2023-05-10T11:05:47.266Z,65.48
2023-05-10T11:08:37.449Z,64.23
2023-05-10T11:11:09.133Z,65.10
2023-05-10T11:13:42.827Z,64.95
2023-05-10T11:16:15.792Z,66.75
2023-05-10T11:18:54.067Z,67.14
2023-05-10T11:21:20.755Z,67.28
2023-05-10T11:23:52.427Z,69.38
2023-05-10T11:26:19.685Z,69.65
2023-05-10T11:28:47.723Z,71.28
2023-05-10T11:31:18.257Z,69.21
2023-05-10T11:33:49.519Z,72.47
2023-05-10T11:36:17.836Z,71.73
2023-05-10T11:38:44.845Z,71.89
2023-05-10T11:41:12.582Z,71.64
2023-05-10T11:43:42.800Z,71.85
2023-05-10T11:46:12.276Z,73.46
2023-05-10T11:48:42.747Z,74.49
2023-05-10T11:51:09.844Z,75.10
2023-05-10T11:53:36.598Z,76.63
2023-05-10T11:56:10.303Z,76.50
2023-05-10T11:58:38.692Z,76.47
2023-05-10T12:01:06.854Z,76.74
2023-05-10T12:03:33.896Z,77.48
2023-05-10T12:06:02.036Z,77.88
2023-05-10T12:08:30.085Z,78.08
2023-05-10T12:11:08.886Z,77.61
2023-05-10T12:13:41.311Z,77.17
2023-05-10T12:16:34.381Z,74.30
2023-05-10T12:19:01.940Z,73.81
2023-05-10T12:21:30.151Z,73.58
2023-05-10T12:24:01.233Z,71.64
2023-05-10T12:26:29.176Z,70.92
2023-05-10T12:28:55.995Z,69.84
2023-05-10T12:31:22.556Z,69.46
2023-05-10T12:33:50.304Z,69.29
2023-05-10T12:36:17.657Z,67.09
2023-05-10T12:38:48.543Z,68.16
2023-05-10T12:41:16.984Z,67.81
2023-05-10T12:43:43.794Z,69.05
2023-05-10T12:46:12.790Z,69.84
2023-05-10T12:48:41.168Z,67.39
2023-05-10T12:51:12.890Z,65.49
2023-05-10T12:53:45.077Z,64.77
2023-05-10T12:56:12.227Z,65.36
2023-05-10T12:58:39.460Z,67.61
2023-05-10T13:01:06.641Z,66.57
2023-05-10T13:03:33.387Z,66.64
2023-05-10T13:05:59.950Z,66.30
2023-05-10T13:08:26.548Z,65.99
2023-05-10T13:10:53.096Z,66.89
2023-05-10T13:13:19.629Z,66.49
2023-05-10T13:15:46.168Z,66.34
2023-05-10T13:18:12.794Z,68.40
2023-05-10T13:20:39.486Z,67.47
2023-05-10T13:23:06.050Z,68.38
2023-05-10T13:25:32.641Z,70.37
2023-05-10T13:27:59.124Z,70.38
2023-05-10T13:30:25.645Z,70.48
2023-05-10T13:32:52.252Z,70.91
2023-05-10T13:35:18.865Z,69.66
2023-05-10T13:37:45.491Z,69.43
2023-05-10T13:40:12.400Z,70.13
2023-05-10T13:42:39.049Z,69.28
2023-05-10T13:45:06.235Z,69.24
2023-05-10T13:47:33.095Z,69.86
2023-05-10T13:49:59.656Z,70.35
2023-05-10T13:52:27.304Z,70.48
2023-05-10T13:54:55.935Z,72.05
2023-05-10T13:57:22.942Z,69.94
2023-05-10T13:59:49.619Z,70.28
2023-05-10T14:02:16.120Z,71.05
2023-05-10T14:04:42.647Z,71.38
2023-05-10T14:07:09.246Z,73.83
2023-05-10T14:09:35.763Z,72.63
2023-05-10T14:12:03.128Z,75.04
2023-05-10T14:14:30.444Z,74.37
2023-05-10T14:16:56.973Z,76.03
2023-05-10T14:19:23.498Z,76.05
2023-05-10T14:21:50.022Z,75.38
2023-05-10T14:24:16.538Z,75.34
2023-05-10T14:26:43.032Z,72.83
2023-05-10T14:29:11.556Z,72.49
2023-05-10T14:31:39.070Z,71.57
2023-05-10T14:34:06.732Z,70.61
2023-05-10T14:36:33.373Z,71.30
2023-05-10T14:38:59.965Z,70.75
2023-05-10T14:41:26.478Z,69.88
2023-05-10T14:43:53.725Z,67.58
2023-05-10T14:46:20.761Z,67.09
2023-05-10T14:48:47.496Z,67.07
2023-05-10T14:51:14.578Z,66.88
2023-05-10T14:53:41.168Z,65.40
2023-05-10T14:56:08.203Z,65.27
2023-05-10T14:58:34.762Z,65.78
2023-05-10T15:01:01.781Z,67.81
2023-05-10T15:03:28.920Z,68.19
2023-05-10T15:05:57.132Z,68.25
2023-05-10T15:08:25.455Z,68.93
2023-05-10T15:10:52.404Z,67.30
2023-05-10T15:13:18.895Z,69.14
2023-05-10T15:15:45.443Z,66.54
2023-05-10T15:18:12.318Z,64.94
2023-05-10T15:20:38.964Z,65.25
2023-05-10T15:23:05.528Z,65.97
2023-05-10T15:25:32.179Z,66.58
2023-05-10T15:27:58.689Z,67.77
2023-05-10T15:30:25.268Z,67.10
2023-05-10T15:32:51.983Z,69.57
2023-05-10T15:35:18.744Z,69.37
2023-05-10T15:37:45.671Z,69.48
2023-05-10T15:40:12.651Z,70.53
2023-05-10T15:42:39.358Z,69.67
2023-05-10T15:45:07.048Z,70.50
2023-05-10T15:47:34.191Z,69.96
2023-05-10T15:50:01.127Z,70.66
2023-05-10T15:52:28.221Z,71.71
2023-05-10T15:54:54.837Z,71.44
2023-05-10T15:57:21.327Z,72.57
2023-05-10T15:59:47.871Z,73.30
2023-05-10T16:02:14.485Z,73.08
2023-05-10T16:04:41.060Z,72.68
2023-05-10T16:07:07.620Z,72.17
2023-05-10T16:09:41.346Z,72.29
2023-05-10T16:12:08.450Z,72.70
2023-05-10T16:14:35.005Z,73.60
2023-05-10T16:17:05.245Z,72.86
2023-05-10T16:19:32.053Z,73.36
2023-05-10T16:21:58.671Z,73.77
2023-05-10T16:24:25.955Z,73.45
2023-05-10T16:26:52.529Z,72.33
2023-05-10T16:29:19.055Z,73.77
2023-05-10T16:31:46.323Z,73.64
2023-05-10T16:34:12.891Z,74.44
2023-05-10T16:36:39.409Z,75.70
2023-05-10T16:39:05.938Z,75.43
2023-05-10T16:41:35.789Z,76.10
2023-05-10T16:44:03.874Z,75.95
2023-05-10T16:46:30.478Z,76.27
2023-05-10T16:48:57.106Z,76.18
2023-05-10T16:51:23.616Z,76.88
2023-05-10T16:53:50.090Z,76.70
2023-05-10T16:56:18.407Z,77.62
2023-05-10T16:58:44.925Z,78.74
2023-05-10T17:01:11.545Z,78.82
2023-05-10T17:03:38.242Z,78.74
2023-05-10T17:06:06.018Z,78.06
2023-05-10T17:08:33.024Z,78.28
2023-05-10T17:11:03.929Z,78.81
2023-05-10T17:13:31.115Z,78.67
2023-05-10T17:15:57.899Z,78.54
2023-05-10T17:18:24.786Z,79.27
2023-05-10T17:20:51.489Z,79.46
2023-05-10T17:23:18.022Z,78.97
2023-05-10T17:25:44.643Z,79.05
2023-05-10T17:28:11.183Z,79.00
2023-05-10T17:30:37.897Z,79.68
2023-05-10T17:33:05.224Z,80.09
2023-05-10T17:35:32.077Z,80.82
2023-05-10T17:37:58.631Z,80.94
2023-05-10T17:40:25.135Z,81.10
2023-05-10T17:42:52.095Z,81.53
2023-05-10T17:45:18.999Z,81.06
2023-05-10T17:47:46.320Z,81.80
2023-05-10T17:50:12.918Z,81.69
2023-05-10T17:52:39.511Z,82.46
2023-05-10T17:55:06.616Z,82.37
2023-05-10T17:57:33.386Z,82.36
2023-05-10T18:00:00.051Z,82.11
2023-05-10T18:02:26.896Z,81.69
2023-05-10T18:04:53.599Z,82.11
2023-05-10T18:07:22.847Z,81.98
2023-05-10T18:09:49.636Z,82.71
2023-05-10T18:12:16.497Z,82.75
2023-05-10T18:14:43.018Z,82.79
2023-05-10T18:17:09.878Z,82.33
2023-05-10T18:19:36.659Z,82.71
2023-05-10T18:22:03.254Z,82.57
2023-05-10T18:24:39.164Z,82.46
2023-05-10T18:27:09.836Z,82.16
2023-05-10T18:29:37.029Z,82.43
2023-05-10T18:32:03.787Z,83.08
2023-05-10T18:34:30.366Z,83.22
2023-05-10T18:36:57.028Z,82.81
2023-05-10T18:39:24.355Z,82.41
2023-05-10T18:41:51.118Z,81.94
2023-05-10T18:44:18.936Z,83.00
2023-05-10T18:46:45.654Z,83.38
2023-05-10T18:49:12.177Z,82.30
2023-05-10T18:51:38.679Z,82.70
2023-05-10T18:54:05.220Z,83.35
2023-05-10T18:56:31.763Z,83.70
2023-05-10T18:58:58.392Z,84.13
2023-05-10T19:01:25.005Z,84.63
2023-05-10T19:03:51.736Z,85.06
2023-05-10T19:06:18.302Z,84.70
2023-05-10T19:08:44.863Z,84.38
2023-05-10T19:11:11.401Z,84.68
2023-05-10T19:13:38.223Z,84.42
2023-05-10T19:16:14.994Z,84.35
2023-05-10T19:18:44.811Z,84.57
2023-05-10T19:21:11.462Z,85.26
2023-05-10T19:23:40.428Z,85.17
2023-05-10T19:26:08.034Z,85.48
2023-05-10T19:28:35.952Z,85.38
2023-05-10T19:31:02.568Z,84.98
2023-05-10T19:33:29.641Z,85.31
2023-05-10T19:35:56.369Z,84.79
2023-05-10T19:38:24.188Z,85.13
2023-05-10T19:40:57.427Z,85.43
2023-05-10T19:43:28.811Z,86.05
2023-05-10T19:45:58.345Z,85.79
2023-05-10T19:48:25.357Z,86.34
2023-05-10T19:50:52.881Z,86.08
2023-05-10T19:53:19.506Z,86.19
2023-05-10T19:55:46.233Z,86.93
2023-05-10T19:58:12.761Z,87.02
2023-05-10T20:00:39.293Z,87.04
2023-05-10T20:03:08.420Z,87.57
2023-05-10T20:05:35.837Z,87.87
2023-05-10T20:08:02.499Z,87.86
2023-05-10T20:10:29.057Z,88.16
2023-05-10T20:12:55.591Z,88.07
2023-05-10T20:15:23.277Z,88.42
2023-05-10T20:17:51.217Z,88.82
2023-05-10T20:20:18.236Z,88.69
2023-05-10T20:22:45.276Z,89.21
2023-05-10T20:25:12.353Z,89.70
2023-05-10T20:27:38.920Z,89.09
2023-05-10T20:30:06.246Z,89.20
2023-05-10T20:32:33.987Z,89.67
2023-05-10T20:35:00.534Z,89.25
2023-05-10T20:37:28.058Z,88.98
2023-05-10T20:39:55.530Z,88.72
2023-05-10T20:42:22.403Z,88.70
2023-05-10T20:44:49.637Z,88.52
2023-05-10T20:47:16.703Z,88.35
2023-05-10T20:49:43.815Z,88.96
2023-05-10T20:52:10.341Z,89.12
2023-05-10T20:54:36.850Z,89.63
2023-05-10T20:57:03.463Z,89.53
2023-05-10T20:59:30.121Z,89.64
2023-05-10T21:01:57.456Z,89.70
2023-05-10T21:04:25.692Z,89.55
2023-05-10T21:06:53.051Z,89.55
2023-05-10T21:09:19.719Z,89.57
2023-05-10T21:11:46.285Z,89.96
2023-05-10T21:14:12.838Z,89.85
2023-05-10T21:16:39.418Z,90.25
2023-05-10T21:19:07.452Z,90.36
2023-05-10T21:21:34.367Z,90.62
2023-05-10T21:24:01.194Z,90.72
2023-05-10T21:26:27.820Z,91.31
2023-05-10T21:28:54.437Z,91.13
2023-05-10T21:31:21.397Z,90.79
2023-05-10T21:33:47.962Z,91.39
2023-05-10T21:36:14.598Z,91.42
2023-05-10T21:38:42.312Z,91.17
2023-05-10T21:41:08.840Z,91.41
2023-05-10T21:43:35.504Z,91.74
2023-05-10T21:46:02.143Z,92.04
2023-05-10T21:48:28.751Z,91.95
2023-05-10T21:50:55.338Z,92.50
2023-05-10T21:53:22.411Z,92.33
2023-05-10T21:55:49.038Z,92.56
2023-05-10T21:58:15.883Z,92.82
2023-05-10T22:00:42.397Z,92.94
2023-05-10T22:03:09.030Z,93.33
2023-05-10T22:05:35.673Z,93.44
2023-05-10T22:08:02.179Z,93.27
2023-05-10T22:10:28.753Z,93.21
2023-05-10T22:12:55.324Z,93.43
2023-05-10T22:15:22.106Z,93.61
2023-05-10T22:17:48.948Z,93.37
2023-05-10T22:20:15.788Z,93.34
2023-05-10T22:22:42.584Z,93.54
2023-05-10T22:25:09.310Z,93.58
2023-05-10T22:27:36.336Z,94.11
2023-05-10T22:30:03.926Z,93.77
2023-05-10T22:32:31.615Z,94.12
2023-05-10T22:34:58.318Z,94.21
2023-05-10T22:37:24.856Z,94.30
2023-05-10T22:39:51.448Z,94.41
2023-05-10T22:42:17.995Z,94.37
2023-05-10T22:44:44.588Z,94.63
2023-05-10T22:47:11.210Z,94.68
2023-05-10T22:49:37.910Z,94.98
2023-05-10T22:52:04.623Z,95.03
2023-05-10T22:54:31.147Z,95.15
2023-05-10T22:56:57.722Z,95.03
2023-05-10T22:59:24.262Z,94.99
2023-05-10T23:01:51.067Z,95.21
2023-05-10T23:04:18.266Z,95.20
2023-05-10T23:06:45.859Z,95.23
2023-05-10T23:09:12.388Z,95.35
2023-05-10T23:11:38.921Z,95.35
2023-05-10T23:14:05.430Z,95.33
2023-05-10T23:16:32.021Z,95.30
2023-05-10T23:18:58.790Z,95.30
2023-05-10T23:21:25.396Z,95.38
2023-05-10T23:23:52.439Z,94.97
2023-05-10T23:26:19.249Z,95.12
2023-05-10T23:28:45.862Z,95.33
2023-05-10T23:31:12.350Z,95.47
2023-05-10T23:33:38.932Z,95.14
2023-05-10T23:36:05.737Z,95.09
2023-05-10T23:38:32.618Z,95.23
2023-05-10T23:40:59.141Z,95.00
2023-05-10T23:43:25.921Z,94.97
2023-05-10T23:45:54.018Z,95.11
2023-05-10T23:48:20.914Z,95.30
2023-05-10T23:50:47.882Z,95.43
2023-05-10T23:53:14.438Z,95.79
2023-05-10T23:55:40.966Z,95.62
2023-05-10T23:58:07.757Z,95.84
